Time;durP1;ratioP1;P1;durP2;ratioP2;P2;SDS_P1;SDS_P2;PMS_P1;PMS_P2;Temp;Humidity;BMP_temperature;BMP_pressure;BME280_temperature;BME280_humidity;BME280_pressure;Samples;Min_cycle;Max_cycle;Signal;HPM_P1;HPM_P2
2021/08/08 00:11:50;;;;;;;;;;;;;;;;;;;;;
2021/08/08 00:20:21;;;;;;;12.82;8.05;;;;;;;;;;4216291;34;20244;-78
2021/08/08 00:32:45;;;;;;;19.27;7.68;;;;;;;;;;4202814;34;20224;-78
2021/08/08 00:35:31;;;;;;;12.77;7.25;;;;;;;;;;4203738;34;20166;-78
2021/08/08 00:47:16;;;;;;;17.00;7.93;;;;;;;;;;4243842;33;20194;-78
2021/08/08 00:50:09;;;;;;;18.80;9.65;;;;;;;;;;4215006;34;20543;-78
2021/08/08 01:15:16;;;;;;;;;;;;;;;;;;;;;
2021/08/08 01:27:18;;;;;;;16.25;8.00;;;;;;;;;;4190003;34;20172;-77
2021/08/08 01:30:08;;;;;;;16.85;7.82;;;;;;;;;;4226392;34;20192;-77
2021/08/08 01:33:03;;;;;;;27.15;10.38;;;;;;;;;;4228739;33;20235;-77
2021/08/08 01:47:34;;;;;;;23.58;8.50;;;;;;;;;;4242794;33;20213;-77
2021/08/08 01:56:09;;;;;;;;;;;;;;;;;;;;;
2021/08/08 02:02:03;;;;;;;20.95;7.55;;;;;;;;;;4263712;33;20232;-77
2021/08/08 02:14:16;;;;;;;15.77;7.10;;;;;;;;;;4242420;33;20187;-77
2021/08/08 02:20:32;;;;;;;15.32;5.70;;;;;;;;;;4257357;33;20255;-77
2021/08/08 02:23:18;;;;;;;16.20;6.12;;;;;;;;;;4248027;33;20160;-76
2021/08/08 02:26:16;;;;;;;17.05;6.35;;;;;;;;;;4269108;33;20209;-78
2021/08/08 02:31:55;;;;;;;18.58;5.78;;;;;;;;;;4302316;33;20187;-77
2021/08/08 02:41:02;;;;;;;15.07;5.00;;;;;;;;;;4265657;33;20215;-78
2021/08/08 02:43:31;;;;;;;10.50;5.32;;;;;;;;;;4298104;33;20195;-78
2021/08/08 02:58:50;;;;;;;7.75;4.70;;;;;;;;;;4301880;33;20184;-78
2021/08/08 03:01:45;;;;;;;11.82;4.78;;;;;;;;;;4314354;33;20284;-79
2021/08/08 03:07:57;;;;;;;16.65;5.22;;;;;;;;;;4302125;33;20167;-79
2021/08/08 03:38:33;;;;;;;14.80;6.05;;;;;;;;;;4244354;33;20157;-79
2021/08/08 03:41:19;;;;;;;16.98;5.60;;;;;;;;;;4259033;33;20218;-79
2021/08/08 03:47:20;;;;;;;19.67;5.90;;;;;;;;;;4315691;33;20187;-80
2021/08/08 03:50:21;;;;;;;21.25;6.45;;;;;;;;;;4303481;33;20191;-79
2021/08/08 03:53:12;;;;;;;17.37;6.75;;;;;;;;;;4313570;33;20175;-78
2021/08/08 03:55:40;;;;;;;24.87;7.80;;;;;;;;;;4323977;33;20573;-78
2021/08/08 03:58:42;;;;;;;20.33;8.05;;;;;;;;;;4334338;33;20189;-78
2021/08/08 04:01:07;;;;;;;22.42;7.62;;;;;;;;;;4346098;33;20584;-77
2021/08/08 04:06:39;;;;;;;16.37;6.45;;;;;;;;;;4338340;33;20177;-77
2021/08/08 04:09:13;;;;;;;16.33;6.93;;;;;;;;;;4345676;33;20609;-78
2021/08/08 04:11:47;;;;;;;19.98;7.37;;;;;;;;;;4346267;32;20646;-77
2021/08/08 04:18:31;;;;;;;;;;;;;;;;;;;;;
2021/08/08 04:20:42;;;;;;;20.73;7.12;;;;;;;;;;4318613;33;20179;-77
2021/08/08 04:23:10;;;;;;;23.15;7.05;;;;;;;;;;4355465;33;20143;-78
2021/08/08 04:25:38;;;;;;;23.90;8.00;;;;;;;;;;4339005;33;20658;-78
2021/08/08 04:28:14;;;;;;;23.03;7.23;;;;;;;;;;4342721;33;20171;-78
2021/08/08 04:31:18;;;;;;;22.40;7.00;;;;;;;;;;4332289;33;20150;-78
2021/08/08 04:34:08;;;;;;;29.00;7.55;;;;;;;;;;4333294;33;20198;-79
2021/08/08 04:36:32;;;;;;;23.42;8.07;;;;;;;;;;4360732;33;20250;-78
2021/08/08 04:38:57;;;;;;;23.75;7.97;;;;;;;;;;4335051;33;20186;-77
2021/08/08 04:41:40;;;;;;;23.65;7.53;;;;;;;;;;4332185;33;20159;-77
2021/08/08 04:44:58;;;;;;;21.73;7.32;;;;;;;;;;4337120;32;20159;-77
2021/08/08 04:47:18;;;;;;;22.35;7.78;;;;;;;;;;4358823;33;20487;-77
2021/08/08 04:49:49;;;;;;;24.80;7.28;;;;;;;;;;4347238;33;20220;-77
2021/08/08 04:52:14;;;;;;;22.62;7.00;;;;;;;;;;4347189;33;20158;-77
2021/08/08 04:54:48;;;;;;;21.15;8.48;;;;;;;;;;4347222;33;20236;-77
2021/08/08 04:57:46;;;;;;;23.92;9.43;;;;;;;;;;4343701;33;20179;-77
2021/08/08 05:00:17;;;;;;;21.73;7.65;;;;;;;;;;4302358;33;20319;-78
2021/08/08 05:03:05;;;;;;;;;;;;;;;;;;;;;
2021/08/08 05:05:31;;;;;;;23.73;7.55;;;;;;;;;;4312768;33;20152;-77
2021/08/08 05:14:28;;;;;;;;;;;;;;;;;;;;;
2021/08/08 05:17:13;;;;;;;25.00;9.65;;;;;;;;;;4350434;32;20152;-77
2021/08/08 05:19:50;;;;;;;28.05;10.07;;;;;;;;;;4359652;32;20209;-77
2021/08/08 05:22:18;;;;;;;28.35;9.57;;;;;;;;;;4345595;33;20148;-77
2021/08/08 05:24:54;;;;;;;28.52;10.55;;;;;;;;;;4340691;33;20194;-77
2021/08/08 05:34:24;;;;;;;27.58;10.80;;;;;;;;;;4314467;33;20194;-77
2021/08/08 05:36:43;;;;;;;;;;;;;;;;;;;;;
2021/08/08 05:39:44;;;;;;;32.65;11.45;;;;;;;;;;4314493;33;20171;-78
2021/08/08 05:51:12;;;;;;;36.75;9.90;;;;;;;;;;4242611;33;20173;-77
2021/08/08 05:53:58;;;;;;;23.80;9.00;;;;;;;;;;4297423;33;20195;-77
2021/08/08 05:56:26;;;;;;;29.70;8.35;;;;;;;;;;4306291;33;20178;-78
2021/08/08 05:59:07;;;;;;;;;;;;;;;;;;;;;
2021/08/08 06:05:02;;;;;;;41.88;10.35;;;;;;;;;;4322875;33;20155;-78
2021/08/08 06:07:31;;;;;;;39.95;10.52;;;;;;;;;;4317690;33;20167;-78
2021/08/08 06:09:56;;;;;;;37.28;10.27;;;;;;;;;;4317002;33;20234;-77
2021/08/08 06:12:52;;;;;;;36.15;9.18;;;;;;;;;;4316986;33;20155;-77
2021/08/08 06:15:16;;;;;;;22.15;8.38;;;;;;;;;;4330508;33;20172;-77
2021/08/08 06:17:51;;;;;;;40.10;9.95;;;;;;;;;;4315728;33;20212;-77
2021/08/08 06:20:17;;;;;;;31.12;9.32;;;;;;;;;;4318098;33;20152;-77
2021/08/08 06:22:43;;;;;;;35.63;9.93;;;;;;;;;;4313717;33;20196;-77
2021/08/08 06:25:08;;;;;;;29.10;8.77;;;;;;;;;;4309905;33;20187;-76
2021/08/08 06:27:33;;;;;;;27.20;7.57;;;;;;;;;;4307197;33;20186;-76
2021/08/08 06:29:59;;;;;;;24.63;7.95;;;;;;;;;;4317572;33;20163;-77
2021/08/08 06:32:24;;;;;;;25.77;7.05;;;;;;;;;;4316929;33;20159;-77
2021/08/08 06:34:49;;;;;;;25.45;6.20;;;;;;;;;;4317529;33;20164;-77
2021/08/08 06:37:36;;;;;;;26.85;6.90;;;;;;;;;;4308822;33;20235;-77
2021/08/08 06:40:03;;;;;;;23.75;5.87;;;;;;;;;;4330570;33;20236;-79
2021/08/08 06:42:31;;;;;;;18.10;5.70;;;;;;;;;;4330731;33;20198;-78
2021/08/08 06:45:27;;;;;;;22.60;5.65;;;;;;;;;;4331889;33;20156;-77
2021/08/08 06:48:20;;;;;;;;;;;;;;;;;;;;;
2021/08/08 06:50:56;;;;;;;18.70;5.35;;;;;;;;;;4360464;33;20143;-77
2021/08/08 06:53:32;;;;;;;24.12;6.20;;;;;;;;;;4337851;33;20189;-79
2021/08/08 06:56:29;;;;;;;23.35;5.57;;;;;;;;;;4331747;33;20253;-80
2021/08/08 06:59:40;;;;;;;;;;;;;;;;;;;;;
2021/08/08 07:02:21;;;;;;;;;;;;;;;;;;;;;
2021/08/08 07:05:06;;;;;;;21.33;5.15;;;;;;;;;;4354858;33;20140;-78
2021/08/08 07:08:01;;;;;;;18.90;4.30;;;;;;;;;;4331944;33;20160;-80
2021/08/08 07:10:44;;;;;;;21.58;4.90;;;;;;;;;;4331130;33;20238;-79
2021/08/08 07:13:12;;;;;;;21.80;5.72;;;;;;;;;;4343891;33;20197;-79
2021/08/08 07:15:58;;;;;;;22.48;5.55;;;;;;;;;;4361156;33;20156;-79
2021/08/08 07:18:26;;;;;;;17.85;5.00;;;;;;;;;;4361105;33;20198;-79
2021/08/08 07:20:52;;;;;;;22.55;5.57;;;;;;;;;;4361886;33;20190;-79
2021/08/08 07:23:27;;;;;;;18.10;5.15;;;;;;;;;;4349844;33;20158;-80
2021/08/08 07:25:55;;;;;;;16.55;5.07;;;;;;;;;;4343609;33;20155;-79
2021/08/08 07:28:23;;;;;;;21.33;5.97;;;;;;;;;;4362666;33;20158;-80
2021/08/08 07:30:55;;;;;;;17.90;5.90;;;;;;;;;;4351791;33;20178;-80
2021/08/08 07:33:20;;;;;;;27.35;6.87;;;;;;;;;;4363875;33;20185;-80
2021/08/08 07:35:52;;;;;;;19.55;5.75;;;;;;;;;;4352409;33;20171;-81
2021/08/08 07:38:31;;;;;;;20.12;5.43;;;;;;;;;;4350613;33;20159;-80
2021/08/08 07:41:00;;;;;;;16.05;5.32;;;;;;;;;;4361805;32;20159;-79
2021/08/08 07:43:30;;;;;;;17.15;5.82;;;;;;;;;;4361278;32;20174;-78
2021/08/08 07:46:02;;;;;;;24.48;5.97;;;;;;;;;;4363054;32;20213;-79
2021/08/08 07:48:28;;;;;;;18.62;5.22;;;;;;;;;;4341351;32;20190;-79
2021/08/08 07:50:53;;;;;;;20.08;5.65;;;;;;;;;;4361447;33;20275;-80
2021/08/08 07:53:27;;;;;;;20.98;6.12;;;;;;;;;;4362549;32;20205;-80
2021/08/08 07:56:05;;;;;;;18.25;5.12;;;;;;;;;;4362717;32;20127;-79
2021/08/08 07:58:30;;;;;;;19.45;5.47;;;;;;;;;;4360745;32;20154;-80
2021/08/08 08:01:07;;;;;;;21.17;5.50;;;;;;;;;;4360526;33;20500;-78
2021/08/08 08:03:35;;;;;;;12.70;4.53;;;;;;;;;;4360843;32;20150;-78
2021/08/08 08:06:00;;;;;;;18.15;5.05;;;;;;;;;;4360172;32;20281;-78
2021/08/08 08:08:25;;;;;;;15.20;4.93;;;;;;;;;;4360421;32;20545;-80
2021/08/08 08:10:51;;;;;;;17.20;4.72;;;;;;;;;;4371409;32;20267;-78
2021/08/08 08:13:16;;;;;;;12.90;4.37;;;;;;;;;;4354027;32;20158;-77
2021/08/08 08:15:44;;;;;;;18.95;4.55;;;;;;;;;;4347629;33;20163;-79
2021/08/08 08:18:09;;;;;;;20.98;5.37;;;;;;;;;;4347905;33;20152;-79
2021/08/08 08:20:35;;;;;;;18.05;4.65;;;;;;;;;;4361257;32;20158;-75
2021/08/08 08:23:00;;;;;;;15.45;4.12;;;;;;;;;;4347925;33;20519;-79
2021/08/08 08:25:33;;;;;;;17.60;4.25;;;;;;;;;;4347690;33;20189;-80
2021/08/08 08:28:01;;;;;;;20.70;4.45;;;;;;;;;;4348769;33;20159;-78
2021/08/08 08:30:26;;;;;;;21.05;4.75;;;;;;;;;;4360058;32;20190;-78
2021/08/08 08:32:52;;;;;;;20.25;4.40;;;;;;;;;;4360069;32;20745;-77
2021/08/08 08:35:17;;;;;;;14.32;4.15;;;;;;;;;;4354662;32;20499;-76
2021/08/08 08:37:42;;;;;;;17.20;4.78;;;;;;;;;;4358521;32;20249;-78
2021/08/08 08:40:08;;;;;;;15.30;4.73;;;;;;;;;;4346874;33;20527;-81
2021/08/08 08:42:35;;;;;;;23.87;4.82;;;;;;;;;;4344599;33;20391;-78
2021/08/08 08:45:04;;;;;;;17.12;4.22;;;;;;;;;;4345033;33;20496;-79
2021/08/08 08:47:30;;;;;;;16.87;4.93;;;;;;;;;;4357081;32;20187;-76
2021/08/08 08:50:05;;;;;;;13.60;4.10;;;;;;;;;;4357046;32;20238;-78
2021/08/08 08:52:33;;;;;;;16.10;4.62;;;;;;;;;;4357098;33;20216;-78
2021/08/08 08:55:08;;;;;;;13.50;4.95;;;;;;;;;;4356953;33;20230;-79
2021/08/08 08:57:35;;;;;;;14.20;4.45;;;;;;;;;;4356933;32;20534;-78
2021/08/08 09:00:06;;;;;;;16.62;4.72;;;;;;;;;;4356881;32;20159;-78
2021/08/08 09:02:34;;;;;;;13.48;4.10;;;;;;;;;;4344718;33;20617;-80
2021/08/08 09:05:01;;;;;;;14.05;4.37;;;;;;;;;;4352841;33;20239;-76
2021/08/08 09:07:32;;;;;;;11.32;3.62;;;;;;;;;;4355029;32;20222;-79
2021/08/08 09:09:57;;;;;;;12.82;4.20;;;;;;;;;;4348987;32;20582;-77
2021/08/08 09:12:43;;;;;;;15.20;4.00;;;;;;;;;;4334667;33;20197;-78
2021/08/08 09:15:11;;;;;;;13.68;3.80;;;;;;;;;;4345447;33;20167;-78
2021/08/08 09:17:37;;;;;;;16.98;4.30;;;;;;;;;;4356839;32;20156;-79
2021/08/08 09:20:10;;;;;;;12.40;3.90;;;;;;;;;;4344259;33;20164;-75
2021/08/08 09:22:36;;;;;;;17.27;4.20;;;;;;;;;;4333629;33;20279;-75
2021/08/08 09:25:01;;;;;;;12.45;3.70;;;;;;;;;;4339308;33;20156;-78
2021/08/08 09:27:44;;;;;;;12.60;4.32;;;;;;;;;;4346920;33;20159;-78
2021/08/08 09:30:19;;;;;;;14.93;4.50;;;;;;;;;;4356261;32;20221;-78
2021/08/08 09:32:47;;;;;;;16.67;4.87;;;;;;;;;;4344319;33;20189;-77
2021/08/08 09:35:19;;;;;;;10.50;3.47;;;;;;;;;;4345814;33;20140;-76
2021/08/08 09:37:56;;;;;;;13.70;3.90;;;;;;;;;;4342311;33;20226;-78
2021/08/08 09:40:21;;;;;;;13.65;3.50;;;;;;;;;;4330511;33;20167;-75
2021/08/08 09:42:46;;;;;;;13.30;3.45;;;;;;;;;;4341436;33;20155;-79
2021/08/08 09:45:14;;;;;;;10.95;3.33;;;;;;;;;;4329356;33;20616;-76
2021/08/08 09:47:45;;;;;;;14.38;3.37;;;;;;;;;;4329454;33;20156;-79
2021/08/08 09:50:13;;;;;;;14.60;3.20;;;;;;;;;;4330350;33;20186;-76
2021/08/08 09:52:41;;;;;;;12.90;3.22;;;;;;;;;;4339615;33;20190;-78
2021/08/08 09:55:16;;;;;;;11.23;3.00;;;;;;;;;;4344349;33;20148;-77
2021/08/08 09:57:41;;;;;;;10.77;3.08;;;;;;;;;;4343833;33;20163;-79
2021/08/08 10:00:23;;;;;;;12.35;3.55;;;;;;;;;;4342848;33;20451;-77
2021/08/08 10:02:50;;;;;;;12.68;3.12;;;;;;;;;;4325300;33;20194;-77
2021/08/08 10:05:38;;;;;;;9.32;3.00;;;;;;;;;;4341458;33;20160;-77
2021/08/08 10:08:16;;;;;;;9.55;2.90;;;;;;;;;;4329198;33;20222;-78
2021/08/08 10:10:43;;;;;;;7.28;3.08;;;;;;;;;;4329228;33;20179;-78
2021/08/08 10:13:28;;;;;;;9.65;2.83;;;;;;;;;;4330396;33;20562;-77
2021/08/08 10:15:55;;;;;;;8.85;3.70;;;;;;;;;;4329746;33;20492;-78
2021/08/08 10:18:25;;;;;;;11.85;3.17;;;;;;;;;;4341398;33;20506;-77
2021/08/08 10:20:55;;;;;;;12.68;2.83;;;;;;;;;;4329745;33;20620;-77
2021/08/08 10:23:21;;;;;;;12.90;3.35;;;;;;;;;;4340215;33;20226;-76
2021/08/08 10:25:47;;;;;;;11.55;2.80;;;;;;;;;;4341818;33;20675;-74
2021/08/08 10:28:12;;;;;;;10.40;2.80;;;;;;;;;;4342485;33;20666;-76
2021/08/08 10:30:38;;;;;;;11.85;3.00;;;;;;;;;;4338811;33;20217;-76
2021/08/08 10:33:06;;;;;;;14.65;3.05;;;;;;;;;;4343621;33;20194;-77
2021/08/08 10:35:40;;;;;;;10.90;2.97;;;;;;;;;;4354693;33;20167;-77
2021/08/08 10:38:06;;;;;;;8.02;2.90;;;;;;;;;;4360084;33;20537;-78
2021/08/08 10:40:32;;;;;;;8.43;2.97;;;;;;;;;;4346400;33;20182;-77
2021/08/08 10:42:58;;;;;;;9.23;2.90;;;;;;;;;;4355504;32;20275;-76
2021/08/08 10:45:24;;;;;;;7.00;2.75;;;;;;;;;;4358932;32;20290;-79
2021/08/08 10:47:59;;;;;;;8.85;2.53;;;;;;;;;;4358883;32;20660;-75
2021/08/08 10:50:42;;;;;;;6.55;2.83;;;;;;;;;;4348189;32;20204;-77
2021/08/08 10:53:19;;;;;;;8.00;2.80;;;;;;;;;;4357447;32;20250;-77
2021/08/08 10:55:45;;;;;;;9.63;3.25;;;;;;;;;;4347020;33;20737;-77
2021/08/08 10:58:11;;;;;;;8.77;2.67;;;;;;;;;;4346854;33;20152;-76
2021/08/08 11:00:39;;;;;;;8.32;2.80;;;;;;;;;;4347700;33;20210;-79
2021/08/08 11:03:17;;;;;;;8.02;2.28;;;;;;;;;;4346502;33;20190;-78
2021/08/08 11:05:43;;;;;;;7.72;2.75;;;;;;;;;;4347479;33;20136;-79
2021/08/08 11:08:12;;;;;;;8.50;2.60;;;;;;;;;;4346493;33;20604;-79
2021/08/08 11:10:39;;;;;;;8.23;2.40;;;;;;;;;;4346029;33;20241;-78
2021/08/08 11:13:15;;;;;;;12.48;2.72;;;;;;;;;;4346218;33;20655;-78
2021/08/08 11:15:41;;;;;;;7.60;2.53;;;;;;;;;;4347479;33;20163;-78
2021/08/08 11:18:06;;;;;;;7.22;2.72;;;;;;;;;;4358618;32;20627;-77
2021/08/08 11:20:31;;;;;;;8.13;2.70;;;;;;;;;;4358510;32;20230;-76
2021/08/08 11:22:57;;;;;;;9.27;2.72;;;;;;;;;;4333265;33;20159;-77
2021/08/08 11:25:23;;;;;;;6.53;2.60;;;;;;;;;;4331848;33;20160;-77
2021/08/08 11:27:55;;;;;;;9.43;2.70;;;;;;;;;;4331688;33;20536;-77
2021/08/08 11:30:20;;;;;;;9.02;2.50;;;;;;;;;;4331576;33;20164;-78
2021/08/08 11:32:56;;;;;;;12.55;2.72;;;;;;;;;;4331543;33;20664;-77
2021/08/08 11:35:28;;;;;;;6.95;2.55;;;;;;;;;;4331461;33;20625;-78
2021/08/08 11:37:54;;;;;;;8.55;2.85;;;;;;;;;;4331538;33;20652;-77
2021/08/08 11:40:20;;;;;;;7.07;2.55;;;;;;;;;;4344303;33;20171;-76
2021/08/08 11:42:46;;;;;;;4.30;2.00;;;;;;;;;;4345896;33;20278;-78
2021/08/08 11:45:11;;;;;;;5.00;1.85;;;;;;;;;;4358450;33;20159;-77
2021/08/08 11:47:36;;;;;;;4.55;2.00;;;;;;;;;;4358420;32;20582;-78
2021/08/08 11:50:05;;;;;;;9.23;2.45;;;;;;;;;;4357931;33;20163;-77
2021/08/08 11:52:31;;;;;;;6.78;1.90;;;;;;;;;;4358031;32;20155;-77
2021/08/08 11:55:06;;;;;;;4.32;1.80;;;;;;;;;;4345931;33;20186;-77
2021/08/08 11:57:45;;;;;;;8.20;2.28;;;;;;;;;;4346513;33;20238;-78
2021/08/08 12:00:10;;;;;;;3.12;1.50;;;;;;;;;;4346349;33;20206;-77
2021/08/08 12:02:35;;;;;;;3.95;1.70;;;;;;;;;;4346631;33;20182;-77
2021/08/08 12:05:01;;;;;;;3.53;1.70;;;;;;;;;;4358260;33;20585;-77
2021/08/08 12:07:28;;;;;;;5.10;1.55;;;;;;;;;;4345471;33;20163;-78
2021/08/08 12:09:54;;;;;;;3.90;1.90;;;;;;;;;;4345923;33;20532;-78
2021/08/08 12:12:19;;;;;;;4.78;1.52;;;;;;;;;;4345856;33;20230;-78
2021/08/08 12:14:45;;;;;;;5.15;1.42;;;;;;;;;;4345873;33;20159;-76
2021/08/08 12:17:20;;;;;;;4.60;1.87;;;;;;;;;;4347908;33;20190;-78
2021/08/08 12:19:49;;;;;;;8.80;2.17;;;;;;;;;;4347689;33;20190;-77
2021/08/08 12:22:16;;;;;;;4.85;1.98;;;;;;;;;;4348226;33;20178;-76
2021/08/08 12:24:42;;;;;;;5.50;2.30;;;;;;;;;;4360059;32;20221;-78
2021/08/08 12:27:09;;;;;;;5.03;2.65;;;;;;;;;;4346578;33;20170;-79
2021/08/08 12:29:38;;;;;;;4.35;2.45;;;;;;;;;;4345544;33;20163;-78
2021/08/08 12:32:07;;;;;;;8.32;2.60;;;;;;;;;;4345287;33;20209;-78
2021/08/08 12:34:32;;;;;;;6.72;2.42;;;;;;;;;;4344973;33;20250;-77
2021/08/08 12:37:02;;;;;;;8.65;2.40;;;;;;;;;;4357461;32;20160;-77
2021/08/08 12:39:28;;;;;;;6.57;2.20;;;;;;;;;;4357534;32;20163;-77
2021/08/08 12:41:58;;;;;;;11.10;2.20;;;;;;;;;;4344563;33;20229;-78
2021/08/08 12:44:34;;;;;;;4.60;2.37;;;;;;;;;;4354563;32;20229;-76
2021/08/08 12:47:00;;;;;;;5.07;1.62;;;;;;;;;;4346024;33;20143;-77
2021/08/08 12:49:31;;;;;;;6.80;2.25;;;;;;;;;;4347347;33;20163;-77
2021/08/08 12:51:57;;;;;;;5.95;2.20;;;;;;;;;;4356885;32;20168;-78
2021/08/08 12:54:22;;;;;;;8.10;2.97;;;;;;;;;;4356885;32;20214;-79
2021/08/08 12:56:47;;;;;;;4.93;2.23;;;;;;;;;;4345622;33;20159;-76
2021/08/08 12:59:12;;;;;;;8.52;2.70;;;;;;;;;;4357309;32;20329;-78
2021/08/08 13:01:40;;;;;;;8.68;2.65;;;;;;;;;;4345118;33;20526;-77
2021/08/08 13:04:09;;;;;;;4.95;2.03;;;;;;;;;;4356737;32;20322;-77
2021/08/08 13:06:35;;;;;;;5.60;1.90;;;;;;;;;;4356072;32;20184;-76
2021/08/08 13:09:00;;;;;;;7.05;2.05;;;;;;;;;;4356645;33;20186;-78
2021/08/08 13:11:27;;;;;;;7.55;1.95;;;;;;;;;;4356578;33;20158;-77
2021/08/08 13:13:52;;;;;;;5.22;1.87;;;;;;;;;;4357530;32;20198;-76
2021/08/08 13:16:17;;;;;;;7.32;1.90;;;;;;;;;;4356626;32;21075;-79
2021/08/08 13:18:55;;;;;;;9.73;2.30;;;;;;;;;;4356105;32;20194;-78
2021/08/08 13:21:20;;;;;;;7.22;1.95;;;;;;;;;;4357139;32;20155;-77
2021/08/08 13:23:46;;;;;;;12.02;2.37;;;;;;;;;;4345845;33;20576;-77
2021/08/08 13:26:11;;;;;;;7.97;2.45;;;;;;;;;;4356705;32;20163;-77
2021/08/08 13:28:36;;;;;;;9.80;2.58;;;;;;;;;;4343884;33;20171;-77
2021/08/08 13:31:02;;;;;;;8.07;2.10;;;;;;;;;;4356507;32;20159;-75
2021/08/08 13:33:28;;;;;;;6.25;1.80;;;;;;;;;;4345496;32;20163;-76
2021/08/08 13:35:54;;;;;;;9.88;1.80;;;;;;;;;;4345036;33;20230;-77
2021/08/08 13:38:19;;;;;;;3.65;1.60;;;;;;;;;;4356740;32;20167;-76
2021/08/08 13:40:44;;;;;;;3.58;1.40;;;;;;;;;;4356072;32;20241;-79
2021/08/08 13:43:10;;;;;;;4.43;1.37;;;;;;;;;;4356041;32;20167;-78
2021/08/08 13:45:35;;;;;;;4.75;1.30;;;;;;;;;;4356119;33;20186;-74
2021/08/08 13:48:00;;;;;;;5.12;1.52;;;;;;;;;;4355543;32;20214;-78
2021/08/08 13:50:25;;;;;;;6.82;1.85;;;;;;;;;;4356081;32;20164;-76
2021/08/08 13:52:51;;;;;;;4.80;1.80;;;;;;;;;;4355886;33;20168;-76
2021/08/08 13:55:17;;;;;;;6.45;2.30;;;;;;;;;;4356338;33;20160;-78
2021/08/08 13:57:49;;;;;;;6.03;1.90;;;;;;;;;;4356770;32;20219;-78
2021/08/08 14:00:15;;;;;;;7.80;2.28;;;;;;;;;;4356249;33;20163;-77
2021/08/08 14:02:40;;;;;;;10.80;2.35;;;;;;;;;;4344792;33;20190;-77
2021/08/08 14:05:09;;;;;;;6.68;2.12;;;;;;;;;;4355985;32;20167;-78
2021/08/08 14:07:34;;;;;;;5.95;2.00;;;;;;;;;;4356005;33;20178;-75
2021/08/08 14:10:00;;;;;;;7.25;2.35;;;;;;;;;;4355940;33;20615;-78
2021/08/08 14:12:28;;;;;;;8.15;2.53;;;;;;;;;;4354754;32;20210;-77
2021/08/08 14:14:53;;;;;;;6.75;2.25;;;;;;;;;;4344073;33;20212;-78
2021/08/08 14:17:18;;;;;;;5.53;2.20;;;;;;;;;;4341219;33;20159;-78
2021/08/08 14:19:44;;;;;;;4.00;1.85;;;;;;;;;;4348698;33;20135;-75
2021/08/08 14:22:09;;;;;;;7.57;2.20;;;;;;;;;;4346445;33;20229;-77
2021/08/08 14:24:44;;;;;;;11.45;3.35;;;;;;;;;;4347896;33;20183;-77
2021/08/08 14:27:35;;;;;;;;;;;;;;;;;;;;;
2021/08/08 14:30:10;;;;;;;6.00;2.28;;;;;;;;;;4302284;33;20187;-78
2021/08/08 14:36:15;;;;;;;6.05;2.30;;;;;;;;;;4301979;33;20212;-77
2021/08/08 14:42:01;;;;;;;6.20;2.25;;;;;;;;;;4261403;33;20153;-77
2021/08/08 14:44:26;;;;;;;7.53;2.08;;;;;;;;;;4312642;33;20168;-77
2021/08/08 14:49:56;;;;;;;5.65;2.12;;;;;;;;;;4327254;33;20226;-76
2021/08/08 14:52:21;;;;;;;5.35;2.42;;;;;;;;;;4319495;33;20600;-77
2021/08/08 15:04:02;;;;;;;7.90;3.10;;;;;;;;;;4273158;33;20187;-79
2021/08/08 15:09:33;;;;;;;11.75;4.37;;;;;;;;;;4258359;33;20188;-79
2021/08/08 15:11:59;;;;;;;9.93;3.83;;;;;;;;;;4297549;33;20184;-80
2021/08/08 15:15:04;;;;;;;8.25;3.20;;;;;;;;;;4323863;33;20211;-79
2021/08/08 15:17:32;;;;;;;7.57;2.80;;;;;;;;;;4317559;33;20168;-78
2021/08/08 15:20:00;;;;;;;6.68;2.50;;;;;;;;;;4314871;33;20159;-77
2021/08/08 15:22:39;;;;;;;;;;;;;;;;;;;;;
2021/08/08 15:35:31;;;;;;;6.37;2.28;;;;;;;;;;4287238;33;20205;-80
2021/08/08 15:41:18;;;;;;;8.18;2.65;;;;;;;;;;4272564;33;20497;-80
2021/08/08 15:44:16;;;;;;;6.75;2.22;;;;;;;;;;4277488;33;20216;-81
2021/08/08 15:46:40;;;;;;;7.43;2.42;;;;;;;;;;4285441;33;20161;-78
2021/08/08 15:49:44;;;;;;;;;;;;;;;;;;;;;
2021/08/08 15:52:34;;;;;;;9.00;2.85;;;;;;;;;;4324249;33;20209;-79
2021/08/08 15:55:11;;;;;;;9.10;2.90;;;;;;;;;;4346969;33;20164;-80
2021/08/08 15:57:36;;;;;;;8.45;2.70;;;;;;;;;;4345451;33;20229;-80
2021/08/08 16:00:08;;;;;;;6.60;2.60;;;;;;;;;;4346569;33;20356;-80
2021/08/08 16:03:28;;;;;;;11.15;3.50;;;;;;;;;;4346193;33;20183;-80
2021/08/08 16:05:43;;;;;;;7.93;2.60;;;;;;;;;;4339128;33;20171;-79
2021/08/08 16:08:14;;;;;;;12.05;3.50;;;;;;;;;;4345597;33;20151;-79
2021/08/08 16:11:14;;;;;;;15.07;3.75;;;;;;;;;;4346165;33;20217;-80
2021/08/08 16:13:40;;;;;;;14.68;3.65;;;;;;;;;;4330513;33;20202;-79
2021/08/08 16:16:06;;;;;;;15.25;3.67;;;;;;;;;;4345683;33;20190;-80
2021/08/08 16:18:34;;;;;;;8.70;2.92;;;;;;;;;;4347481;33;20136;-80
2021/08/08 16:21:00;;;;;;;13.07;3.10;;;;;;;;;;4345784;33;20158;-79
2021/08/08 16:23:29;;;;;;;9.80;3.05;;;;;;;;;;4345501;33;20508;-79
2021/08/08 16:25:54;;;;;;;9.48;2.60;;;;;;;;;;4345515;33;20183;-80
2021/08/08 16:28:19;;;;;;;12.82;2.40;;;;;;;;;;4333191;33;20190;-79
2021/08/08 16:30:45;;;;;;;8.07;2.30;;;;;;;;;;4346840;33;20175;-79
2021/08/08 16:33:10;;;;;;;10.63;2.67;;;;;;;;;;4347976;33;20159;-78
2021/08/08 16:35:36;;;;;;;12.18;2.83;;;;;;;;;;4360085;32;20154;-77
2021/08/08 16:38:01;;;;;;;13.65;3.45;;;;;;;;;;4332763;33;20466;-78
2021/08/08 16:40:26;;;;;;;7.28;2.00;;;;;;;;;;4333177;33;20170;-77
2021/08/08 16:43:04;;;;;;;5.72;1.40;;;;;;;;;;4332395;33;20528;-79
2021/08/08 16:45:29;;;;;;;4.10;1.75;;;;;;;;;;4332996;33;20231;-78
2021/08/08 16:47:55;;;;;;;6.40;1.40;;;;;;;;;;4360250;32;20168;-77
2021/08/08 16:50:20;;;;;;;6.45;1.40;;;;;;;;;;4361163;32;20142;-79
2021/08/08 16:52:45;;;;;;;3.05;1.30;;;;;;;;;;4347696;33;20159;-80
2021/08/08 16:55:11;;;;;;;3.78;1.12;;;;;;;;;;4347505;33;20492;-78
2021/08/08 16:57:36;;;;;;;5.60;1.30;;;;;;;;;;4347680;33;20195;-80
2021/08/08 17:00:02;;;;;;;4.10;1.23;;;;;;;;;;4347578;32;20228;-78
2021/08/08 17:02:27;;;;;;;4.25;1.25;;;;;;;;;;4347341;33;20194;-78
2021/08/08 17:04:52;;;;;;;3.58;1.30;;;;;;;;;;4361364;32;20207;-79
2021/08/08 17:07:19;;;;;;;4.30;1.20;;;;;;;;;;4359500;32;20576;-78
2021/08/08 17:09:55;;;;;;;4.32;1.30;;;;;;;;;;4346986;33;20206;-78
2021/08/08 17:12:28;;;;;;;4.60;1.20;;;;;;;;;;4361458;32;20131;-79
2021/08/08 17:15:01;;;;;;;3.60;1.40;;;;;;;;;;4347022;33;20178;-78
2021/08/08 17:17:29;;;;;;;4.82;2.05;;;;;;;;;;4347287;33;20167;-77
2021/08/08 17:19:54;;;;;;;3.20;1.40;;;;;;;;;;4360428;32;20193;-77
2021/08/08 17:22:22;;;;;;;5.87;1.90;;;;;;;;;;4359168;32;20159;-80
2021/08/08 17:24:48;;;;;;;7.05;1.85;;;;;;;;;;4347396;33;20256;-78
2021/08/08 17:27:13;;;;;;;6.95;2.10;;;;;;;;;;4346728;33;20252;-78
2021/08/08 17:29:41;;;;;;;6.60;1.92;;;;;;;;;;4360836;32;20146;-78
2021/08/08 17:32:13;;;;;;;6.68;2.53;;;;;;;;;;4360650;32;20552;-79
2021/08/08 17:34:38;;;;;;;7.70;2.53;;;;;;;;;;4359204;32;20263;-80
2021/08/08 17:37:04;;;;;;;7.62;2.90;;;;;;;;;;4347031;33;20163;-78
2021/08/08 17:39:30;;;;;;;10.25;2.65;;;;;;;;;;4346748;33;20212;-79
2021/08/08 17:42:08;;;;;;;6.03;1.85;;;;;;;;;;4346416;33;20206;-78
2021/08/08 17:44:35;;;;;;;9.10;2.50;;;;;;;;;;4347573;33;20194;-78
2021/08/08 17:47:00;;;;;;;13.25;2.80;;;;;;;;;;4347079;33;20163;-79
2021/08/08 17:49:26;;;;;;;7.60;2.65;;;;;;;;;;4347381;33;20186;-79
2021/08/08 17:51:51;;;;;;;9.65;2.70;;;;;;;;;;4346115;33;20713;-78
2021/08/08 17:54:16;;;;;;;8.25;2.15;;;;;;;;;;4346425;33;20225;-79
2021/08/08 17:56:43;;;;;;;6.90;2.60;;;;;;;;;;4361474;32;20127;-78
2021/08/08 17:59:08;;;;;;;7.65;2.15;;;;;;;;;;4355416;32;20492;-80
2021/08/08 18:01:34;;;;;;;7.12;2.60;;;;;;;;;;4345554;33;20572;-78
2021/08/08 18:04:00;;;;;;;7.43;2.20;;;;;;;;;;4331796;33;20223;-78
2021/08/08 18:06:25;;;;;;;8.70;2.40;;;;;;;;;;4331797;33;20151;-78
2021/08/08 18:08:51;;;;;;;6.33;2.30;;;;;;;;;;4345714;33;20166;-78
2021/08/08 18:11:16;;;;;;;8.63;2.58;;;;;;;;;;4331783;33;20252;-76
2021/08/08 18:13:42;;;;;;;6.45;2.10;;;;;;;;;;4336426;33;20225;-78
2021/08/08 18:16:11;;;;;;;10.85;3.03;;;;;;;;;;4346842;33;20155;-79
2021/08/08 18:18:36;;;;;;;13.05;2.72;;;;;;;;;;4347273;33;20159;-79
2021/08/08 18:21:02;;;;;;;9.60;2.63;;;;;;;;;;4346827;33;20554;-78
2021/08/08 18:23:30;;;;;;;8.18;2.53;;;;;;;;;;4331653;33;20326;-77
2021/08/08 18:25:55;;;;;;;11.20;2.65;;;;;;;;;;4332090;33;20243;-79
2021/08/08 18:28:23;;;;;;;9.13;2.65;;;;;;;;;;4331718;33;20162;-77
2021/08/08 18:30:49;;;;;;;11.20;2.55;;;;;;;;;;4341344;33;20159;-78
2021/08/08 18:33:14;;;;;;;5.32;2.40;;;;;;;;;;4359217;33;20159;-78
2021/08/08 18:35:39;;;;;;;10.82;2.78;;;;;;;;;;4358839;33;20490;-77
2021/08/08 18:38:05;;;;;;;8.50;2.55;;;;;;;;;;4346435;33;20154;-78
2021/08/08 18:40:30;;;;;;;8.18;2.40;;;;;;;;;;4358462;32;20163;-78
2021/08/08 18:42:55;;;;;;;8.55;2.50;;;;;;;;;;4358766;33;20163;-78
2021/08/08 18:45:21;;;;;;;8.63;2.40;;;;;;;;;;4359814;33;20202;-79
2021/08/08 18:47:46;;;;;;;11.82;2.62;;;;;;;;;;4358843;32;20159;-78
2021/08/08 18:50:11;;;;;;;11.15;5.05;;;;;;;;;;4358527;33;20550;-78
2021/08/08 18:52:37;;;;;;;13.05;2.42;;;;;;;;;;4358901;33;20156;-78
2021/08/08 18:55:03;;;;;;;13.65;3.15;;;;;;;;;;4359029;32;20155;-77
2021/08/08 18:57:31;;;;;;;7.80;2.55;;;;;;;;;;4346114;33;20158;-77
2021/08/08 19:00:02;;;;;;;9.90;3.35;;;;;;;;;;4346231;33;20201;-78